sensor_id;sensor_type;location;lat;lon;timestamp;pressure;altitude;pressure_sealevel;temperature;humidity
62402;BME280;48440;51.224;22.506;2023-02-11T00:00:31;100581.25;;;0.90;79.05
62402;BME280;48440;51.224;22.506;2023-02-11T00:02:57;100583.09;;;0.90;79.04
62402;BME280;48440;51.224;22.506;2023-02-11T00:05:22;100582.25;;;0.89;79.50
62402;BME280;48440;51.224;22.506;2023-02-11T00:07:48;100578.75;;;0.89;79.45
62402;BME280;48440;51.224;22.506;2023-02-11T00:10:13;100568.53;;;0.84;79.69
62402;BME280;48440;51.224;22.506;2023-02-11T00:12:39;100574.56;;;0.86;80.10
62402;BME280;48440;51.224;22.506;2023-02-11T00:15:06;100570.19;;;0.85;80.21
62402;BME280;48440;51.224;22.506;2023-02-11T00:17:32;100572.88;;;0.85;79.95
62402;BME280;48440;51.224;22.506;2023-02-11T00:19:57;100558.50;;;0.86;80.14
62402;BME280;48440;51.224;22.506;2023-02-11T00:22:23;100549.81;;;0.84;80.19
62402;BME280;48440;51.224;22.506;2023-02-11T00:24:48;100556.00;;;0.85;80.26
62402;BME280;48440;51.224;22.506;2023-02-11T00:27:14;100548.16;;;0.83;80.67
62402;BME280;48440;51.224;22.506;2023-02-11T00:29:39;100539.13;;;0.84;80.11
62402;BME280;48440;51.224;22.506;2023-02-11T00:32:05;100541.97;;;0.83;80.35
62402;BME280;48440;51.224;22.506;2023-02-11T00:34:34;100532.94;;;0.84;80.45
62402;BME280;48440;51.224;22.506;2023-02-11T00:37:00;100539.13;;;0.84;80.32
62402;BME280;48440;51.224;22.506;2023-02-11T00:39:25;100528.28;;;0.86;79.78
62402;BME280;48440;51.224;22.506;2023-02-11T00:41:51;100539.13;;;0.84;79.68
62402;BME280;48440;51.224;22.506;2023-02-11T00:44:16;100540.81;;;0.85;79.67
62402;BME280;48440;51.224;22.506;2023-02-11T00:46:41;100546.00;;;0.87;79.44
62402;BME280;48440;51.224;22.506;2023-02-11T00:49:07;100542.31;;;0.88;79.82
62402;BME280;48440;51.224;22.506;2023-02-11T00:51:32;100542.16;;;0.89;78.95
62402;BME280;48440;51.224;22.506;2023-02-11T00:53:58;100535.97;;;0.89;79.17
62402;BME280;48440;51.224;22.506;2023-02-11T00:56:24;100531.31;;;0.91;79.20
62402;BME280;48440;51.224;22.506;2023-02-11T00:58:49;100525.28;;;0.89;79.40
62402;BME280;48440;51.224;22.506;2023-02-11T01:01:15;100524.28;;;0.90;79.30
62402;BME280;48440;51.224;22.506;2023-02-11T01:03:40;100524.97;;;0.92;79.34
62402;BME280;48440;51.224;22.506;2023-02-11T01:06:08;100527.63;;;0.92;78.91
62402;BME280;48440;51.224;22.506;2023-02-11T01:08:33;100526.81;;;0.91;79.04
62402;BME280;48440;51.224;22.506;2023-02-11T01:11:02;100525.13;;;0.90;79.12
62402;BME280;48440;51.224;22.506;2023-02-11T01:13:29;100525.81;;;0.92;79.03
62402;BME280;48440;51.224;22.506;2023-02-11T01:15:55;100518.78;;;0.91;78.98
62402;BME280;48440;51.224;22.506;2023-02-11T01:18:21;100515.78;;;0.94;78.82
62402;BME280;48440;51.224;22.506;2023-02-11T01:20:46;100513.28;;;0.93;78.98
62402;BME280;48440;51.224;22.506;2023-02-11T01:23:12;100509.59;;;0.94;78.82
62402;BME280;48440;51.224;22.506;2023-02-11T01:25:37;100501.75;;;0.92;79.01
62402;BME280;48440;51.224;22.506;2023-02-11T01:28:03;100492.72;;;0.93;79.19
62402;BME280;48440;51.224;22.506;2023-02-11T01:30:28;100497.25;;;0.93;78.90
62402;BME280;48440;51.224;22.506;2023-02-11T01:32:54;100490.56;;;0.97;78.27
62402;BME280;48440;51.224;22.506;2023-02-11T01:35:19;100487.56;;;1.00;78.43
62402;BME280;48440;51.224;22.506;2023-02-11T01:37:45;100477.53;;;0.94;78.26
62402;BME280;48440;51.224;22.506;2023-02-11T01:40:15;100476.03;;;0.99;78.32
62402;BME280;48440;51.224;22.506;2023-02-11T01:42:41;100469.69;;;1.00;78.42
62402;BME280;48440;51.224;22.506;2023-02-11T01:45:51;100466.19;;;1.00;78.83
62402;BME280;48440;51.224;22.506;2023-02-11T01:48:31;100460.16;;;0.98;78.71
62402;BME280;48440;51.224;22.506;2023-02-11T01:51:03;100461.84;;;0.99;78.75
62402;BME280;48440;51.224;22.506;2023-02-11T01:53:31;100457.31;;;0.99;78.63
62402;BME280;48440;51.224;22.506;2023-02-11T01:56:16;100456.50;;;0.99;78.66
62402;BME280;48440;51.224;22.506;2023-02-11T01:59:07;100444.78;;;1.00;78.65
62402;BME280;48440;51.224;22.506;2023-02-11T02:01:34;100436.94;;;0.98;78.65
62402;BME280;48440;51.224;22.506;2023-02-11T02:04:03;100432.44;;;0.99;77.94
62402;BME280;48440;51.224;22.506;2023-02-11T02:06:34;100426.25;;;0.98;78.24
62402;BME280;48440;51.224;22.506;2023-02-11T02:09:05;100417.41;;;0.98;78.01
62402;BME280;48440;51.224;22.506;2023-02-11T02:11:34;100420.91;;;0.98;78.00
62402;BME280;48440;51.224;22.506;2023-02-11T02:13:59;100423.91;;;0.95;77.72
62402;BME280;48440;51.224;22.506;2023-02-11T02:16:34;100431.09;;;0.95;77.96
62402;BME280;48440;51.224;22.506;2023-02-11T02:25:01;100388.66;;;0.92;77.47
62402;BME280;48440;51.224;22.506;2023-02-11T02:27:47;100385.47;;;0.88;77.53
62402;BME280;48440;51.224;22.506;2023-02-11T02:38:45;100369.25;;;0.90;77.78
62402;BME280;48440;51.224;22.506;2023-02-11T02:41:15;100376.94;;;0.85;77.73
62402;BME280;48440;51.224;22.506;2023-02-11T02:43:47;100381.63;;;0.91;77.13
62402;BME280;48440;51.224;22.506;2023-02-11T02:46:25;100381.47;;;0.92;77.35
62402;BME280;48440;51.224;22.506;2023-02-11T02:48:51;100384.13;;;0.92;77.23
62402;BME280;48440;51.224;22.506;2023-02-11T02:56:47;100373.78;;;0.89;76.27
62402;BME280;48440;51.224;22.506;2023-02-11T03:07:08;100346.56;;;0.94;75.32
62402;BME280;48440;51.224;22.506;2023-02-11T03:09:50;100340.53;;;0.92;75.34
62402;BME280;48440;51.224;22.506;2023-02-11T03:12:20;100333.69;;;0.89;75.72
62402;BME280;48440;51.224;22.506;2023-02-11T03:14:50;100310.63;;;0.80;75.58
62402;BME280;48440;51.224;22.506;2023-02-11T03:17:16;100302.59;;;0.80;75.44
62402;BME280;48440;51.224;22.506;2023-02-11T03:19:45;100307.66;;;0.75;75.54
62402;BME280;48440;51.224;22.506;2023-02-11T03:22:26;100297.63;;;0.77;75.75
62402;BME280;48440;51.224;22.506;2023-02-11T03:24:54;100283.91;;;0.80;74.99
62402;BME280;48440;51.224;22.506;2023-02-11T03:27:26;100294.75;;;0.79;75.29
62402;BME280;48440;51.224;22.506;2023-02-11T03:32:51;100307.28;;;0.78;75.62
62402;BME280;48440;51.224;22.506;2023-02-11T03:35:20;100324.66;;;0.82;74.49
62402;BME280;48440;51.224;22.506;2023-02-11T03:37:51;100322.66;;;0.84;73.97
62402;BME280;48440;51.224;22.506;2023-02-11T03:40:27;100314.97;;;0.81;74.31
62402;BME280;48440;51.224;22.506;2023-02-11T03:42:58;100304.28;;;0.81;74.22
62402;BME280;48440;51.224;22.506;2023-02-11T03:45:26;100289.75;;;0.84;73.67
62402;BME280;48440;51.224;22.506;2023-02-11T03:47:57;100297.09;;;0.82;73.83
62402;BME280;48440;51.224;22.506;2023-02-11T03:50:25;100285.09;;;0.78;73.66
62402;BME280;48440;51.224;22.506;2023-02-11T03:52:54;100298.97;;;0.73;73.53
62402;BME280;48440;51.224;22.506;2023-02-11T03:55:22;100267.88;;;0.80;73.35
62402;BME280;48440;51.224;22.506;2023-02-11T03:57:50;100249.69;;;0.76;73.16
62402;BME280;48440;51.224;22.506;2023-02-11T04:00:16;100277.41;;;0.75;73.00
62402;BME280;48440;51.224;22.506;2023-02-11T04:02:41;100255.03;;;0.76;73.10
62402;BME280;48440;51.224;22.506;2023-02-11T04:05:13;100236.66;;;0.73;72.73
62402;BME280;48440;51.224;22.506;2023-02-11T04:07:39;100251.19;;;0.70;72.84
62402;BME280;48440;51.224;22.506;2023-02-11T04:10:04;100248.84;;;0.67;73.06
62402;BME280;48440;51.224;22.506;2023-02-11T04:12:30;100256.88;;;0.67;72.89
62402;BME280;48440;51.224;22.506;2023-02-11T04:14:55;100247.34;;;0.73;72.54
62402;BME280;48440;51.224;22.506;2023-02-11T04:17:21;100217.47;;;0.77;72.33
62402;BME280;48440;51.224;22.506;2023-02-11T04:19:46;100223.97;;;0.75;71.71
62402;BME280;48440;51.224;22.506;2023-02-11T04:22:12;100233.31;;;0.71;72.20
62402;BME280;48440;51.224;22.506;2023-02-11T04:24:37;100217.63;;;0.76;71.75
62402;BME280;48440;51.224;22.506;2023-02-11T04:27:03;100222.97;;;0.76;71.46
62402;BME280;48440;51.224;22.506;2023-02-11T04:29:28;100224.66;;;0.77;71.29
62402;BME280;48440;51.224;22.506;2023-02-11T04:31:54;100223.13;;;0.74;71.64
62402;BME280;48440;51.224;22.506;2023-02-11T04:34:20;100225.81;;;0.74;71.68
62402;BME280;48440;51.224;22.506;2023-02-11T04:36:46;100216.97;;;0.74;72.01
62402;BME280;48440;51.224;22.506;2023-02-11T04:39:11;100210.13;;;0.71;71.87
62402;BME280;48440;51.224;22.506;2023-02-11T04:41:37;100210.13;;;0.71;71.32
62402;BME280;48440;51.224;22.506;2023-02-11T04:44:03;100192.91;;;0.65;71.70
62402;BME280;48440;51.224;22.506;2023-02-11T04:46:28;100190.41;;;0.64;71.80
62402;BME280;48440;51.224;22.506;2023-02-11T04:48:53;100183.91;;;0.58;71.91
62402;BME280;48440;51.224;22.506;2023-02-11T04:51:20;100174.56;;;0.62;71.81
62402;BME280;48440;51.224;22.506;2023-02-11T04:53:45;100179.22;;;0.60;71.66
62402;BME280;48440;51.224;22.506;2023-02-11T04:56:10;100175.38;;;0.63;71.97
62402;BME280;48440;51.224;22.506;2023-02-11T04:58:36;100167.22;;;0.64;71.14
62402;BME280;48440;51.224;22.506;2023-02-11T05:01:11;100165.69;;;0.62;71.43
62402;BME280;48440;51.224;22.506;2023-02-11T05:03:37;100157.84;;;0.60;71.28
62402;BME280;48440;51.224;22.506;2023-02-11T05:06:03;100153.84;;;0.56;71.55
62402;BME280;48440;51.224;22.506;2023-02-11T05:08:29;100142.03;;;0.51;71.22
62402;BME280;48440;51.224;22.506;2023-02-11T05:10:54;100141.19;;;0.50;71.45
62402;BME280;48440;51.224;22.506;2023-02-11T05:13:20;100134.69;;;0.45;71.62
62402;BME280;48440;51.224;22.506;2023-02-11T05:15:45;100136.69;;;0.51;71.34
62402;BME280;48440;51.224;22.506;2023-02-11T05:18:11;100137.88;;;0.48;71.43
62402;BME280;48440;51.224;22.506;2023-02-11T05:20:37;100129.84;;;0.48;71.52
62402;BME280;48440;51.224;22.506;2023-02-11T05:23:03;100127.84;;;0.50;71.29
62402;BME280;48440;51.224;22.506;2023-02-11T05:25:28;100118.16;;;0.49;71.56
62402;BME280;48440;51.224;22.506;2023-02-11T05:27:54;100119.84;;;0.50;71.36
62402;BME280;48440;51.224;22.506;2023-02-11T05:30:19;100125.50;;;0.47;71.52
62402;BME280;48440;51.224;22.506;2023-02-11T05:32:45;100123.00;;;0.46;71.59
62402;BME280;48440;51.224;22.506;2023-02-11T05:35:10;100116.16;;;0.43;71.46
62402;BME280;48440;51.224;22.506;2023-02-11T05:37:36;100111.81;;;0.42;71.46
62402;BME280;48440;51.224;22.506;2023-02-11T05:40:01;100110.00;;;0.43;71.40
62402;BME280;48440;51.224;22.506;2023-02-11T05:42:26;100109.50;;;0.39;71.46
62402;BME280;48440;51.224;22.506;2023-02-11T05:44:52;100111.16;;;0.40;71.45
62402;BME280;48440;51.224;22.506;2023-02-11T05:47:17;100108.00;;;0.45;71.03
62402;BME280;48440;51.224;22.506;2023-02-11T05:49:43;100095.63;;;0.44;71.32
62402;BME280;48440;51.224;22.506;2023-02-11T05:52:08;100100.31;;;0.42;71.17
62402;BME280;48440;51.224;22.506;2023-02-11T05:54:34;100098.81;;;0.39;71.64
62402;BME280;48440;51.224;22.506;2023-02-11T05:56:59;100086.47;;;0.38;71.29
62402;BME280;48440;51.224;22.506;2023-02-11T05:59:24;100077.44;;;0.39;71.14
62402;BME280;48440;51.224;22.506;2023-02-11T06:01:50;100087.31;;;0.30;71.17
62402;BME280;48440;51.224;22.506;2023-02-11T06:04:16;100081.78;;;0.32;71.04
62402;BME280;48440;51.224;22.506;2023-02-11T06:06:41;100084.97;;;0.36;70.60
62402;BME280;48440;51.224;22.506;2023-02-11T06:09:08;100078.28;;;0.31;70.57
62402;BME280;48440;51.224;22.506;2023-02-11T06:11:34;100061.78;;;0.28;70.77
62402;BME280;48440;51.224;22.506;2023-02-11T06:14:00;100057.28;;;0.28;70.61
62402;BME280;48440;51.224;22.506;2023-02-11T06:16:25;100051.13;;;0.20;70.44
62402;BME280;48440;51.224;22.506;2023-02-11T06:18:51;100045.63;;;0.21;70.14
62402;BME280;48440;51.224;22.506;2023-02-11T06:21:16;100047.13;;;0.16;70.05
62402;BME280;48440;51.224;22.506;2023-02-11T06:23:42;100036.78;;;0.21;69.81
62402;BME280;48440;51.224;22.506;2023-02-11T06:26:15;100029.28;;;0.24;69.45
62402;BME280;48440;51.224;22.506;2023-02-11T06:28:41;100029.44;;;0.23;69.45
62402;BME280;48440;51.224;22.506;2023-02-11T06:31:07;100016.59;;;0.18;69.65
62402;BME280;48440;51.224;22.506;2023-02-11T06:33:34;100017.09;;;0.22;69.13
62402;BME280;48440;51.224;22.506;2023-02-11T06:36:00;100016.94;;;0.23;69.49
62402;BME280;48440;51.224;22.506;2023-02-11T06:38:25;100024.22;;;0.29;69.08
62402;BME280;48440;51.224;22.506;2023-02-11T06:40:50;100029.56;;;0.29;69.33
62402;BME280;48440;51.224;22.506;2023-02-11T06:43:16;100024.72;;;0.33;69.13
62402;BME280;48440;51.224;22.506;2023-02-11T06:45:42;100022.72;;;0.35;69.11
62402;BME280;48440;51.224;22.506;2023-02-11T06:48:07;100033.41;;;0.35;69.11
62402;BME280;48440;51.224;22.506;2023-02-11T06:50:32;100021.38;;;0.39;68.96
62402;BME280;48440;51.224;22.506;2023-02-11T06:52:58;100019.38;;;0.41;68.90
62402;BME280;48440;51.224;22.506;2023-02-11T06:55:24;100022.03;;;0.41;68.78
62402;BME280;48440;51.224;22.506;2023-02-11T06:57:50;100022.34;;;0.46;69.12
62402;BME280;48440;51.224;22.506;2023-02-11T07:00:15;100027.34;;;0.49;68.72
62402;BME280;48440;51.224;22.506;2023-02-11T07:02:41;100018.13;;;0.60;68.83
62402;BME280;48440;51.224;22.506;2023-02-11T07:05:07;100009.78;;;0.55;68.29
62402;BME280;48440;51.224;22.506;2023-02-11T07:07:32;100009.94;;;0.61;68.67
62402;BME280;48440;51.224;22.506;2023-02-11T07:09:58;100003.75;;;0.61;68.08
62402;BME280;48440;51.224;22.506;2023-02-11T07:12:24;100014.75;;;0.66;67.90
62402;BME280;48440;51.224;22.506;2023-02-11T07:14:49;99998.56;;;0.67;67.77
62402;BME280;48440;51.224;22.506;2023-02-11T07:17:15;100002.75;;;0.62;68.14
62402;BME280;48440;51.224;22.506;2023-02-11T07:19:40;100008.59;;;0.65;67.90
62402;BME280;48440;51.224;22.506;2023-02-11T07:22:05;99998.91;;;0.64;67.95
62402;BME280;48440;51.224;22.506;2023-02-11T07:24:31;99985.19;;;0.67;67.52
62402;BME280;48440;51.224;22.506;2023-02-11T07:26:57;99994.84;;;0.77;67.09
62402;BME280;48440;51.224;22.506;2023-02-11T07:29:22;99988.44;;;0.86;67.05
62402;BME280;48440;51.224;22.506;2023-02-11T07:31:47;99979.94;;;0.82;66.23
62402;BME280;48440;51.224;22.506;2023-02-11T07:34:13;99982.22;;;0.93;66.13
62402;BME280;48440;51.224;22.506;2023-02-11T07:36:38;99978.84;;;0.99;65.87
62402;BME280;48440;51.224;22.506;2023-02-11T07:39:04;99968.03;;;1.16;65.61
62402;BME280;48440;51.224;22.506;2023-02-11T07:41:29;99970.22;;;1.35;65.17
62402;BME280;48440;51.224;22.506;2023-02-11T07:43:55;99976.72;;;1.41;65.03
62402;BME280;48440;51.224;22.506;2023-02-11T07:46:23;99970.66;;;1.47;64.63
62402;BME280;48440;51.224;22.506;2023-02-11T07:48:49;99963.00;;;1.58;64.36
62402;BME280;48440;51.224;22.506;2023-02-11T07:53:40;99954.84;;;1.89;63.18
62402;BME280;48440;51.224;22.506;2023-02-11T07:56:07;99932.25;;;1.77;63.10
62402;BME280;48440;51.224;22.506;2023-02-11T07:58:33;99933.97;;;1.70;63.28
62402;BME280;48440;51.224;22.506;2023-02-11T08:01:01;99930.66;;;1.83;62.52
62402;BME280;48440;51.224;22.506;2023-02-11T08:03:26;99945.94;;;2.77;60.42
62402;BME280;48440;51.224;22.506;2023-02-11T08:05:52;99918.22;;;3.55;57.88
62402;BME280;48440;51.224;22.506;2023-02-11T08:08:17;99924.94;;;4.00;56.57
62402;BME280;48440;51.224;22.506;2023-02-11T08:10:43;99923.53;;;4.46;54.91
62402;BME280;48440;51.224;22.506;2023-02-11T08:13:08;99916.56;;;4.58;54.12
62402;BME280;48440;51.224;22.506;2023-02-11T08:15:33;99924.72;;;4.97;53.78
62402;BME280;48440;51.224;22.506;2023-02-11T08:17:59;99914.53;;;4.73;53.16
62402;BME280;48440;51.224;22.506;2023-02-11T08:20:24;99933.72;;;4.57;53.38
62402;BME280;48440;51.224;22.506;2023-02-11T08:22:50;99923.34;;;4.54;53.11
62402;BME280;48440;51.224;22.506;2023-02-11T08:25:15;99915.13;;;4.14;54.49
62402;BME280;48440;51.224;22.506;2023-02-11T08:27:40;99914.19;;;4.00;54.86
62402;BME280;48440;51.224;22.506;2023-02-11T08:30:06;99917.97;;;3.50;55.97
62402;BME280;48440;51.224;22.506;2023-02-11T08:32:33;99923.56;;;3.06;57.26
62402;BME280;48440;51.224;22.506;2023-02-11T08:34:59;99907.97;;;2.73;58.38
62402;BME280;48440;51.224;22.506;2023-02-11T08:37:24;99908.19;;;2.57;58.99
62402;BME280;48440;51.224;22.506;2023-02-11T08:39:49;99903.97;;;2.48;59.40
62402;BME280;48440;51.224;22.506;2023-02-11T08:42:15;99879.38;;;2.45;60.08
62402;BME280;48440;51.224;22.506;2023-02-11T08:44:41;99884.19;;;2.49;59.63
62402;BME280;48440;51.224;22.506;2023-02-11T08:47:07;99883.50;;;2.26;60.04
62402;BME280;48440;51.224;22.506;2023-02-11T08:49:32;99879.34;;;2.09;61.01
62402;BME280;48440;51.224;22.506;2023-02-11T08:51:58;99885.63;;;2.01;61.69
62402;BME280;48440;51.224;22.506;2023-02-11T08:54:28;99876.59;;;2.02;61.62
62402;BME280;48440;51.224;22.506;2023-02-11T08:56:54;99884.81;;;2.00;61.43
62402;BME280;48440;51.224;22.506;2023-02-11T08:59:19;99867.53;;;2.03;62.15
62402;BME280;48440;51.224;22.506;2023-02-11T09:01:45;99875.22;;;2.06;61.96
62402;BME280;48440;51.224;22.506;2023-02-11T09:04:12;99872.69;;;2.19;61.11
62402;BME280;48440;51.224;22.506;2023-02-11T09:06:37;99864.09;;;2.24;61.84
62402;BME280;48440;51.224;22.506;2023-02-11T09:09:03;99856.25;;;2.22;61.40
62402;BME280;48440;51.224;22.506;2023-02-11T09:11:33;99870.00;;;2.19;61.64
62402;BME280;48440;51.224;22.506;2023-02-11T09:14:00;99853.66;;;2.14;61.54
62402;BME280;48440;51.224;22.506;2023-02-11T09:16:28;99853.34;;;2.02;61.74
62402;BME280;48440;51.224;22.506;2023-02-11T09:18:56;99862.19;;;2.03;62.36
62402;BME280;48440;51.224;22.506;2023-02-11T09:21:22;99856.16;;;2.16;62.11
62402;BME280;48440;51.224;22.506;2023-02-11T09:23:47;99856.34;;;2.29;61.92
62402;BME280;48440;51.224;22.506;2023-02-11T09:26:16;99848.34;;;2.35;61.47
62402;BME280;48440;51.224;22.506;2023-02-11T09:28:42;99843.47;;;2.39;61.52
62402;BME280;48440;51.224;22.506;2023-02-11T09:31:09;99849.53;;;2.48;60.87
62402;BME280;48440;51.224;22.506;2023-02-11T09:33:37;99853.81;;;2.63;60.60
62402;BME280;48440;51.224;22.506;2023-02-11T09:36:04;99844.47;;;2.74;60.24
62402;BME280;48440;51.224;22.506;2023-02-11T09:38:31;99834.13;;;2.71;60.35
62402;BME280;48440;51.224;22.506;2023-02-11T09:40:57;99837.69;;;2.57;60.41
62402;BME280;48440;51.224;22.506;2023-02-11T09:43:28;99826.66;;;2.66;60.37
62402;BME280;48440;51.224;22.506;2023-02-11T09:45:55;99822.72;;;2.84;59.91
62402;BME280;48440;51.224;22.506;2023-02-11T09:48:22;99819.22;;;2.90;59.74
62402;BME280;48440;51.224;22.506;2023-02-11T09:50:59;99803.53;;;3.08;59.45
62402;BME280;48440;51.224;22.506;2023-02-11T09:53:28;99804.09;;;3.03;59.59
62402;BME280;48440;51.224;22.506;2023-02-11T09:55:59;99796.00;;;2.97;59.32
62402;BME280;48440;51.224;22.506;2023-02-11T09:58:27;99797.16;;;2.66;59.66
62402;BME280;48440;51.224;22.506;2023-02-11T10:01:20;99784.53;;;2.60;60.06
62402;BME280;48440;51.224;22.506;2023-02-11T10:04:10;99774.44;;;2.62;60.70
62402;BME280;48440;51.224;22.506;2023-02-11T10:20:07;99758.91;;;2.51;61.85
62402;BME280;48440;51.224;22.506;2023-02-11T10:22:47;99752.91;;;2.49;61.87
62402;BME280;48440;51.224;22.506;2023-02-11T10:25:34;99762.41;;;2.52;62.20
62402;BME280;48440;51.224;22.506;2023-02-11T10:28:10;99754.38;;;2.52;62.02
62402;BME280;48440;51.224;22.506;2023-02-11T10:30:39;99741.88;;;2.59;62.05
62402;BME280;48440;51.224;22.506;2023-02-11T10:36:04;99733.63;;;2.60;62.71
62402;BME280;48440;51.224;22.506;2023-02-11T10:38:30;99724.16;;;2.64;62.82
62402;BME280;48440;51.224;22.506;2023-02-11T10:40:57;99718.81;;;2.64;62.69
62402;BME280;48440;51.224;22.506;2023-02-11T10:43:26;99725.16;;;2.57;62.88
62402;BME280;48440;51.224;22.506;2023-02-11T10:45:54;99733.31;;;2.49;63.34
62402;BME280;48440;51.224;22.506;2023-02-11T10:54:28;99728.09;;;2.41;63.69
62402;BME280;48440;51.224;22.506;2023-02-11T10:56:44;99726.81;;;2.36;64.41
62402;BME280;48440;51.224;22.506;2023-02-11T11:01:55;99721.63;;;2.35;64.85
62402;BME280;48440;51.224;22.506;2023-02-11T11:04:41;99725.97;;;2.36;64.82
62402;BME280;48440;51.224;22.506;2023-02-11T11:10:36;99706.81;;;2.32;64.93
62402;BME280;48440;51.224;22.506;2023-02-11T11:17:35;99698.31;;;2.29;65.48
62402;BME280;48440;51.224;22.506;2023-02-11T11:22:38;99697.09;;;2.31;65.67
62402;BME280;48440;51.224;22.506;2023-02-11T11:25:04;99701.00;;;2.29;65.65
62402;BME280;48440;51.224;22.506;2023-02-11T11:27:29;99714.38;;;2.29;65.98
62402;BME280;48440;51.224;22.506;2023-02-11T11:29:55;99712.72;;;2.28;66.41
62402;BME280;48440;51.224;22.506;2023-02-11T11:32:29;99706.91;;;2.24;66.92
62402;BME280;48440;51.224;22.506;2023-02-11T11:35:02;99694.38;;;2.25;67.55
62402;BME280;48440;51.224;22.506;2023-02-11T11:37:36;99681.59;;;2.27;68.96
62402;BME280;48440;51.224;22.506;2023-02-11T11:40:10;99672.94;;;2.25;69.87
62402;BME280;48440;51.224;22.506;2023-02-11T11:43:03;99675.22;;;2.28;70.35
62402;BME280;48440;51.224;22.506;2023-02-11T11:45:30;99663.69;;;2.27;70.79
62402;BME280;48440;51.224;22.506;2023-02-11T11:48:00;99654.81;;;2.27;71.62
62402;BME280;48440;51.224;22.506;2023-02-11T11:55:37;99653.09;;;2.19;73.78
62402;BME280;48440;51.224;22.506;2023-02-11T11:58:04;99641.19;;;2.22;74.48
62402;BME280;48440;51.224;22.506;2023-02-11T12:00:43;99627.53;;;2.17;74.88
62402;BME280;48440;51.224;22.506;2023-02-11T12:14:30;99638.72;;;1.99;75.90
62402;BME280;48440;51.224;22.506;2023-02-11T12:22:24;99632.66;;;1.90;77.68
62402;BME280;48440;51.224;22.506;2023-02-11T12:25:00;99616.59;;;1.90;78.04
62402;BME280;48440;51.224;22.506;2023-02-11T12:27:49;99618.69;;;1.95;78.54
62402;BME280;48440;51.224;22.506;2023-02-11T12:38:32;99648.00;;;1.82;80.08
62402;BME280;48440;51.224;22.506;2023-02-11T12:43:42;99652.72;;;1.80;80.83
62402;BME280;48440;51.224;22.506;2023-02-11T12:49:02;99652.47;;;1.75;81.37
62402;BME280;48440;51.224;22.506;2023-02-11T13:00:16;99660.22;;;1.69;82.26
62402;BME280;48440;51.224;22.506;2023-02-11T13:03:05;99669.53;;;1.74;82.11
62402;BME280;48440;51.224;22.506;2023-02-11T13:05:44;99668.50;;;1.75;82.20
62402;BME280;48440;51.224;22.506;2023-02-11T13:08:28;99676.91;;;1.72;82.24
62402;BME280;48440;51.224;22.506;2023-02-11T13:10:58;99662.53;;;1.73;82.50
62402;BME280;48440;51.224;22.506;2023-02-11T13:13:29;99666.66;;;1.75;82.67
62402;BME280;48440;51.224;22.506;2023-02-11T13:16:06;99650.81;;;1.74;82.87
62402;BME280;48440;51.224;22.506;2023-02-11T13:18:55;99641.13;;;1.73;83.15
62402;BME280;48440;51.224;22.506;2023-02-11T13:30:07;99645.63;;;1.72;83.34
62402;BME280;48440;51.224;22.506;2023-02-11T13:35:48;99634.75;;;1.74;82.93
62402;BME280;48440;51.224;22.506;2023-02-11T13:38:33;99626.16;;;1.78;82.90
62402;BME280;48440;51.224;22.506;2023-02-11T13:41:05;99613.78;;;1.77;83.13
62402;BME280;48440;51.224;22.506;2023-02-11T13:43:34;99611.94;;;1.78;83.10
62402;BME280;48440;51.224;22.506;2023-02-11T13:46:05;99617.09;;;1.79;83.29
62402;BME280;48440;51.224;22.506;2023-02-11T13:48:35;99612.13;;;1.76;83.16
62402;BME280;48440;51.224;22.506;2023-02-11T13:51:06;99610.94;;;1.79;83.56
62402;BME280;48440;51.224;22.506;2023-02-11T13:53:52;99607.88;;;1.82;83.20
62402;BME280;48440;51.224;22.506;2023-02-11T13:56:37;99612.63;;;1.86;83.05
62402;BME280;48440;51.224;22.506;2023-02-11T13:59:51;99601.72;;;1.88;82.44
62402;BME280;48440;51.224;22.506;2023-02-11T14:11:50;99600.44;;;1.84;83.45
62402;BME280;48440;51.224;22.506;2023-02-11T14:14:10;99595.75;;;1.86;83.29
62402;BME280;48440;51.224;22.506;2023-02-11T14:19:33;99592.03;;;1.87;83.23
62402;BME280;48440;51.224;22.506;2023-02-11T14:22:04;99599.69;;;1.90;83.12
62402;BME280;48440;51.224;22.506;2023-02-11T14:29:48;99576.81;;;1.87;83.27
62402;BME280;48440;51.224;22.506;2023-02-11T14:35:11;99592.84;;;2.09;85.86
62402;BME280;48440;51.224;22.506;2023-02-11T14:37:47;99585.28;;;2.12;83.54
62402;BME280;48440;51.224;22.506;2023-02-11T14:40:29;99587.72;;;2.07;83.37
62402;BME280;48440;51.224;22.506;2023-02-11T14:43:13;99585.25;;;2.06;82.86
62402;BME280;48440;51.224;22.506;2023-02-11T14:45:44;99580.66;;;1.99;83.00
62402;BME280;48440;51.224;22.506;2023-02-11T14:48:16;99592.56;;;1.97;83.53
62402;BME280;48440;51.224;22.506;2023-02-11T14:50:49;99598.94;;;1.96;83.48
62402;BME280;48440;51.224;22.506;2023-02-11T14:53:21;99607.53;;;1.91;83.67
62402;BME280;48440;51.224;22.506;2023-02-11T14:55:49;99604.84;;;1.91;83.70
62402;BME280;48440;51.224;22.506;2023-02-11T14:58:24;99602.56;;;1.88;84.00
62402;BME280;48440;51.224;22.506;2023-02-11T15:03:37;99605.25;;;1.88;84.24
62402;BME280;48440;51.224;22.506;2023-02-11T15:08:31;99596.00;;;1.91;84.11
62402;BME280;48440;51.224;22.506;2023-02-11T15:11:00;99591.28;;;1.93;84.35
62402;BME280;48440;51.224;22.506;2023-02-11T15:13:28;99591.94;;;1.95;84.00
62402;BME280;48440;51.224;22.506;2023-02-11T15:15:59;99593.38;;;1.97;83.96
62402;BME280;48440;51.224;22.506;2023-02-11T15:18:34;99598.75;;;1.97;84.31
62402;BME280;48440;51.224;22.506;2023-02-11T15:21:02;99597.28;;;1.95;84.23
62402;BME280;48440;51.224;22.506;2023-02-11T15:23:28;99594.41;;;1.96;84.19
62402;BME280;48440;51.224;22.506;2023-02-11T15:25:55;99591.53;;;1.98;84.27
62402;BME280;48440;51.224;22.506;2023-02-11T15:28:26;99595.06;;;1.98;84.13
62402;BME280;48440;51.224;22.506;2023-02-11T15:31:14;99592.38;;;1.98;84.32
62402;BME280;48440;51.224;22.506;2023-02-11T15:33:40;99599.56;;;1.98;84.48